Time;durP1;ratioP1;P1;durP2;ratioP2;P2;SDS_P1;SDS_P2;PMS_P1;PMS_P2;Temp;Humidity;BMP_temperature;BMP_pressure;BME280_temperature;BME280_humidity;BME280_pressure;Samples;Min_cycle;Max_cycle;Signal;HPM_P1;HPM_P2
2022/10/12 00:00:33;;;;;;;;;;;7.50;99.90;;;;;;5102009;28;19957;-74
2022/10/12 00:02:59;;;;;;;;;;;7.40;99.90;;;;;;5102330;28;19912;-74
2022/10/12 00:05:24;;;;;;;;;;;7.40;99.90;;;;;;5088701;28;19993;-74
2022/10/12 00:07:50;;;;;;;;;;;7.30;99.90;;;;;;5097101;28;19954;-74
2022/10/12 00:10:17;;;;;;;;;;;7.30;99.90;;;;;;5097887;28;20039;-74
2022/10/12 00:12:43;;;;;;;;;;;7.40;99.90;;;;;;5093293;28;20823;-74
2022/10/12 00:15:09;;;;;;;;;;;7.40;99.90;;;;;;5082679;28;20004;-74
2022/10/12 00:17:35;;;;;;;;;;;7.40;99.90;;;;;;5094884;28;19916;-74
2022/10/12 00:20:01;;;;;;;;;;;7.40;99.90;;;;;;5096103;28;19973;-74
2022/10/12 00:22:26;;;;;;;;;;;7.40;99.90;;;;;;5095071;28;19965;-74
2022/10/12 00:24:52;;;;;;;;;;;7.40;99.90;;;;;;5093829;28;20307;-74
2022/10/12 00:27:18;;;;;;;;;;;7.40;99.90;;;;;;5076526;28;20291;-74
2022/10/12 00:29:44;;;;;;;;;;;7.40;99.90;;;;;;5067431;28;19916;-74
2022/10/12 00:32:09;;;;;;;;;;;7.40;99.90;;;;;;5077452;28;19916;-74
2022/10/12 00:34:35;;;;;;;;;;;7.30;99.90;;;;;;5095473;28;19912;-74
2022/10/12 00:37:01;;;;;;;;;;;7.20;99.90;;;;;;5096048;28;20223;-75
2022/10/12 00:39:26;;;;;;;;;;;7.10;99.90;;;;;;5090257;28;19916;-75
2022/10/12 00:41:52;;;;;;;;;;;7.00;99.90;;;;;;5096057;28;19916;-75
2022/10/12 00:44:38;;;;;;;;;;;7.00;99.90;;;;;;5096800;28;19912;-75
2022/10/12 00:47:11;;;;;;;;;;;6.90;99.90;;;;;;5091904;28;20011;-75
2022/10/12 00:49:36;;;;;;;;;;;6.90;99.90;;;;;;5092340;28;19935;-75
2022/10/12 00:52:05;;;;;;;;;;;6.90;99.90;;;;;;5095394;28;19920;-75
2022/10/12 00:54:33;;;;;;;;;;;6.90;99.90;;;;;;5079706;28;19952;-75
2022/10/12 00:57:01;;;;;;;;;;;6.80;99.90;;;;;;5095779;28;19954;-75
2022/10/12 00:59:30;;;;;;;;;;;6.70;99.90;;;;;;5095590;28;19923;-75
2022/10/12 01:01:56;;;;;;;;;;;6.70;99.90;;;;;;5095015;28;20781;-75
2022/10/12 01:04:22;;;;;;;;;;;6.70;99.90;;;;;;5096357;28;20031;-74
2022/10/12 01:06:48;;;;;;;;;;;6.60;99.90;;;;;;5097737;28;19912;-75
2022/10/12 01:09:14;;;;;;;;;;;6.60;99.90;;;;;;5097675;28;19923;-75
2022/10/12 01:11:40;;;;;;;;;;;6.60;99.90;;;;;;5100334;28;19912;-74
2022/10/12 01:14:05;;;;;;;;;;;6.60;99.90;;;;;;5032569;28;20875;-75
2022/10/12 01:16:31;;;;;;;;;;;6.70;99.90;;;;;;4993845;28;19916;-74
2022/10/12 01:19:06;;;;;;;;;;;6.80;99.90;;;;;;4974557;28;20512;-75
2022/10/12 01:21:33;;;;;;;;;;;6.80;99.90;;;;;;4993312;28;19969;-75
2022/10/12 01:24:24;;;;;;;;;;;6.80;99.90;;;;;;4974858;28;21071;-75
2022/10/12 01:27:11;;;;;;;;;;;6.80;99.90;;;;;;4994210;28;23797;-74
2022/10/12 01:29:48;;;;;;;;;;;6.90;99.90;;;;;;4992475;28;19920;-74
2022/10/12 01:32:33;;;;;;;;;;;6.80;99.90;;;;;;4969193;28;19925;-74
2022/10/12 01:35:09;;;;;;;;;;;6.80;99.90;;;;;;4972676;28;20539;-74
2022/10/12 01:37:41;;;;;;;;;;;6.90;99.90;;;;;;4973146;28;19935;-74
2022/10/12 01:40:09;;;;;;;;;;;6.70;99.90;;;;;;4970686;28;24136;-74
2022/10/12 01:42:37;;;;;;;;;;;6.70;99.90;;;;;;4971506;28;20099;-74
2022/10/12 01:45:04;;;;;;;;;;;6.70;99.90;;;;;;4973276;28;19938;-74
2022/10/12 01:47:30;;;;;;;;;;;6.70;99.90;;;;;;4973637;28;20368;-75
2022/10/12 01:49:56;;;;;;;;;;;6.70;99.90;;;;;;4972372;28;19935;-75
2022/10/12 01:52:22;;;;;;;;;;;6.70;99.90;;;;;;4973368;28;20624;-74
2022/10/12 01:54:56;;;;;;;;;;;6.80;99.90;;;;;;4972404;28;21437;-74
2022/10/12 01:57:41;;;;;;;;;;;6.60;99.90;;;;;;4974702;28;23580;-75
2022/10/12 02:00:08;;;;;;;;;;;6.60;99.90;;;;;;4971735;28;21682;-75
2022/10/12 02:02:33;;;;;;;;;;;6.50;99.90;;;;;;4973044;28;23220;-75
2022/10/12 02:05:04;;;;;;;;;;;6.50;99.90;;;;;;4975299;28;19971;-75
2022/10/12 02:07:41;;;;;;;;;;;6.50;99.90;;;;;;4973061;28;19922;-74
2022/10/12 02:10:12;;;;;;;;;;;6.40;99.90;;;;;;4972933;28;19927;-74
2022/10/12 02:12:38;;;;;;;;;;;6.30;99.90;;;;;;4970425;28;20002;-74
2022/10/12 02:15:05;;;;;;;;;;;6.30;99.90;;;;;;4973549;28;20424;-74
2022/10/12 02:17:32;;;;;;;;;;;6.40;99.90;;;;;;4972525;28;20019;-75
2022/10/12 02:19:59;;;;;;;;;;;6.40;99.90;;;;;;4973464;28;19944;-75
2022/10/12 02:22:25;;;;;;;;;;;6.30;99.90;;;;;;4986299;28;19917;-75
2022/10/12 02:24:53;;;;;;;;;;;6.20;99.90;;;;;;4973950;28;19920;-75
2022/10/12 02:27:20;;;;;;;;;;;6.20;99.90;;;;;;4969900;28;19920;-75
2022/10/12 02:29:46;;;;;;;;;;;6.10;99.90;;;;;;4971801;28;20265;-75
2022/10/12 02:32:31;;;;;;;;;;;6.10;99.90;;;;;;4972803;28;19955;-75
2022/10/12 02:35:03;;;;;;;;;;;6.10;99.90;;;;;;4972063;28;19917;-74
2022/10/12 02:37:35;;;;;;;;;;;6.10;99.90;;;;;;4972725;28;19923;-74
2022/10/12 02:40:09;;;;;;;;;;;6.20;99.90;;;;;;4971355;28;19924;-74
2022/10/12 02:42:37;;;;;;;;;;;6.30;99.90;;;;;;4973318;28;19960;-74
2022/10/12 02:45:05;;;;;;;;;;;6.30;99.90;;;;;;4971265;28;19916;-74
2022/10/12 02:47:31;;;;;;;;;;;6.30;99.90;;;;;;4972063;28;19916;-74
2022/10/12 02:49:58;;;;;;;;;;;6.20;99.90;;;;;;4970622;28;20819;-74
2022/10/12 02:52:24;;;;;;;;;;;6.20;99.90;;;;;;4971496;28;19916;-75
2022/10/12 02:54:50;;;;;;;;;;;6.10;99.90;;;;;;4972914;28;20011;-75
2022/10/12 02:57:16;;;;;;;;;;;6.10;99.90;;;;;;4972308;28;23926;-74
2022/10/12 02:59:41;;;;;;;;;;;6.10;99.90;;;;;;4973424;28;19959;-75
2022/10/12 03:02:09;;;;;;;;;;;6.00;99.90;;;;;;4976760;28;19917;-74
2022/10/12 03:04:35;;;;;;;;;;;6.10;99.90;;;;;;4974262;28;20916;-74
2022/10/12 03:07:01;;;;;;;;;;;6.10;99.90;;;;;;4975189;28;19943;-73
2022/10/12 03:09:26;;;;;;;;;;;6.10;99.90;;;;;;4976328;28;19924;-73
2022/10/12 03:11:52;;;;;;;;;;;6.10;99.90;;;;;;4975050;28;19917;-74
2022/10/12 03:14:19;;;;;;;;;;;6.10;99.90;;;;;;4977042;28;19934;-74
2022/10/12 03:16:46;;;;;;;;;;;6.10;99.90;;;;;;4976375;28;19923;-74
2022/10/12 03:19:13;;;;;;;;;;;6.10;99.90;;;;;;4975741;28;20030;-75
2022/10/12 03:21:38;;;;;;;;;;;6.00;99.90;;;;;;4975823;28;20656;-75
2022/10/12 03:24:04;;;;;;;;;;;6.00;99.90;;;;;;4976041;28;19925;-75
2022/10/12 03:26:30;;;;;;;;;;;5.90;99.90;;;;;;4974458;28;20053;-75
2022/10/12 03:28:55;;;;;;;;;;;5.60;99.90;;;;;;4974576;28;19916;-74
2022/10/12 03:31:21;;;;;;;;;;;5.70;99.90;;;;;;4973995;28;19926;-74
2022/10/12 03:33:47;;;;;;;;;;;5.70;99.90;;;;;;4974246;28;20223;-73
2022/10/12 03:36:12;;;;;;;;;;;5.80;99.90;;;;;;4971126;28;20854;-74
2022/10/12 03:38:38;;;;;;;;;;;5.80;99.90;;;;;;4975703;28;20411;-73
2022/10/12 03:41:04;;;;;;;;;;;5.90;99.90;;;;;;4975589;28;20658;-74
2022/10/12 03:43:29;;;;;;;;;;;5.80;99.90;;;;;;4975568;28;20429;-73
2022/10/12 03:45:55;;;;;;;;;;;6.00;99.90;;;;;;4975872;28;19924;-73
2022/10/12 03:48:21;;;;;;;;;;;6.00;99.90;;;;;;4975646;28;19916;-73
2022/10/12 03:50:47;;;;;;;;;;;5.90;99.90;;;;;;4975378;28;20311;-74
2022/10/12 03:53:13;;;;;;;;;;;5.90;99.90;;;;;;4977270;28;19916;-74
2022/10/12 03:55:39;;;;;;;;;;;5.90;99.90;;;;;;4974872;28;19916;-74
2022/10/12 03:58:04;;;;;;;;;;;6.00;99.90;;;;;;4975487;28;20377;-74
2022/10/12 04:00:30;;;;;;;;;;;5.80;99.90;;;;;;4974228;28;19961;-74
2022/10/12 04:02:56;;;;;;;;;;;5.70;99.90;;;;;;4977002;28;19916;-74
2022/10/12 04:05:22;;;;;;;;;;;5.60;99.90;;;;;;4974000;28;19956;-74
2022/10/12 04:07:47;;;;;;;;;;;5.60;99.90;;;;;;4974889;28;20841;-74
2022/10/12 04:10:13;;;;;;;;;;;5.70;99.90;;;;;;4973816;28;19924;-74
2022/10/12 04:12:39;;;;;;;;;;;5.60;99.90;;;;;;4974408;28;21432;-74
2022/10/12 04:15:05;;;;;;;;;;;5.50;99.90;;;;;;4973833;28;20451;-73
2022/10/12 04:17:30;;;;;;;;;;;5.50;99.90;;;;;;4973579;28;19993;-74
2022/10/12 04:19:56;;;;;;;;;;;5.40;99.90;;;;;;4973518;28;19962;-74
2022/10/12 04:22:23;;;;;;;;;;;5.40;99.90;;;;;;4975547;28;19959;-74
2022/10/12 04:24:49;;;;;;;;;;;5.50;99.90;;;;;;4974056;28;19935;-74
2022/10/12 04:27:15;;;;;;;;;;;5.40;99.90;;;;;;4973698;28;19921;-74
2022/10/12 04:29:40;;;;;;;;;;;5.40;99.90;;;;;;4973105;28;19928;-73
2022/10/12 04:32:06;;;;;;;;;;;5.40;99.90;;;;;;4984879;28;19919;-73
2022/10/12 04:34:32;;;;;;;;;;;5.40;99.90;;;;;;4993263;28;19926;-73
2022/10/12 04:36:57;;;;;;;;;;;5.40;99.90;;;;;;4993582;28;19923;-74
2022/10/12 04:39:23;;;;;;;;;;;5.30;99.90;;;;;;4993317;28;19916;-73
2022/10/12 04:41:49;;;;;;;;;;;5.30;99.90;;;;;;4972563;28;19947;-73
2022/10/12 04:44:14;;;;;;;;;;;5.30;99.90;;;;;;4994799;28;19916;-73
2022/10/12 04:46:40;;;;;;;;;;;5.30;99.90;;;;;;4973916;28;19965;-73
2022/10/12 04:49:05;;;;;;;;;;;5.40;99.90;;;;;;4992540;28;19965;-75
2022/10/12 04:51:31;;;;;;;;;;;5.40;99.90;;;;;;4992723;28;19916;-73
2022/10/12 04:53:57;;;;;;;;;;;5.50;99.90;;;;;;4993034;28;19935;-73
2022/10/12 04:56:23;;;;;;;;;;;5.50;99.90;;;;;;4994311;28;19915;-75
2022/10/12 04:58:48;;;;;;;;;;;5.50;99.90;;;;;;4994458;28;20331;-74
2022/10/12 05:01:14;;;;;;;;;;;5.50;99.90;;;;;;4989986;28;20059;-74
2022/10/12 05:03:40;;;;;;;;;;;5.50;99.90;;;;;;4993970;28;19916;-73
2022/10/12 05:06:06;;;;;;;;;;;5.50;99.90;;;;;;4992926;28;19916;-73
2022/10/12 05:08:31;;;;;;;;;;;5.50;99.90;;;;;;4994774;28;20383;-73
2022/10/12 05:10:58;;;;;;;;;;;5.50;99.90;;;;;;4992219;28;19968;-74
2022/10/12 05:13:24;;;;;;;;;;;5.50;99.90;;;;;;4975475;28;20294;-73
2022/10/12 05:15:50;;;;;;;;;;;5.50;99.90;;;;;;4995011;28;19945;-74
2022/10/12 05:18:16;;;;;;;;;;;5.50;99.90;;;;;;4975749;28;19939;-74
2022/10/12 05:20:42;;;;;;;;;;;5.40;99.90;;;;;;4994131;28;20026;-72
2022/10/12 05:23:09;;;;;;;;;;;5.30;99.90;;;;;;4972746;28;19916;-73
2022/10/12 05:25:35;;;;;;;;;;;5.20;99.90;;;;;;4991721;28;20901;-73
2022/10/12 05:28:01;;;;;;;;;;;5.20;99.90;;;;;;4973608;28;19920;-73
2022/10/12 05:30:26;;;;;;;;;;;5.30;99.90;;;;;;4993172;28;24126;-73
2022/10/12 05:32:52;;;;;;;;;;;5.30;99.90;;;;;;4975457;28;19920;-72
2022/10/12 05:35:18;;;;;;;;;;;5.40;99.90;;;;;;4973994;28;19923;-73
2022/10/12 05:37:44;;;;;;;;;;;5.40;99.90;;;;;;4993228;28;20075;-72
2022/10/12 05:40:10;;;;;;;;;;;5.50;99.90;;;;;;4993679;28;19916;-71
2022/10/12 05:42:36;;;;;;;;;;;5.60;99.90;;;;;;4992883;28;20061;-72
2022/10/12 05:45:02;;;;;;;;;;;5.60;99.90;;;;;;4990981;28;19919;-72
2022/10/12 05:47:27;;;;;;;;;;;5.70;99.90;;;;;;4991394;28;19920;-73
2022/10/12 05:49:53;;;;;;;;;;;5.70;99.90;;;;;;4991719;28;20798;-73
2022/10/12 05:52:19;;;;;;;;;;;5.60;99.90;;;;;;4990512;28;20310;-72
2022/10/12 05:54:44;;;;;;;;;;;5.60;99.90;;;;;;4993139;28;20272;-72
2022/10/12 05:57:10;;;;;;;;;;;5.60;99.90;;;;;;4975288;28;20319;-72
2022/10/12 05:59:35;;;;;;;;;;;5.70;99.90;;;;;;4992646;28;19955;-73
2022/10/12 06:02:01;;;;;;;;;;;5.60;99.90;;;;;;4991032;28;20014;-73
2022/10/12 06:04:27;;;;;;;;;;;5.60;99.90;;;;;;4974624;28;20208;-73
2022/10/12 06:06:52;;;;;;;;;;;5.50;99.90;;;;;;4971737;28;19919;-73
2022/10/12 06:09:18;;;;;;;;;;;5.50;99.90;;;;;;4988705;28;19927;-72
2022/10/12 06:11:43;;;;;;;;;;;5.40;99.90;;;;;;4990294;28;19916;-74
2022/10/12 06:14:09;;;;;;;;;;;5.40;99.90;;;;;;4990813;28;20721;-73
2022/10/12 06:16:35;;;;;;;;;;;5.40;99.90;;;;;;4971638;28;19916;-71
2022/10/12 06:19:00;;;;;;;;;;;5.40;99.90;;;;;;4990468;28;19923;-72
2022/10/12 06:21:26;;;;;;;;;;;5.30;99.90;;;;;;4993685;28;19943;-71
2022/10/12 06:23:51;;;;;;;;;;;5.30;99.90;;;;;;4990922;28;19922;-71
2022/10/12 06:26:17;;;;;;;;;;;5.20;99.90;;;;;;4992104;28;20385;-72
2022/10/12 06:28:42;;;;;;;;;;;5.30;99.90;;;;;;4992617;28;19916;-72
2022/10/12 06:31:09;;;;;;;;;;;5.30;99.90;;;;;;4991783;28;20044;-73
2022/10/12 06:33:35;;;;;;;;;;;5.30;99.90;;;;;;4994999;28;19926;-72
2022/10/12 06:36:00;;;;;;;;;;;5.40;99.90;;;;;;4992964;28;19917;-72
2022/10/12 06:38:26;;;;;;;;;;;5.50;99.90;;;;;;4992761;28;20240;-71
2022/10/12 06:40:52;;;;;;;;;;;5.50;99.90;;;;;;4972981;28;20750;-72
2022/10/12 06:43:18;;;;;;;;;;;5.50;99.90;;;;;;4991951;28;20942;-71
2022/10/12 06:45:43;;;;;;;;;;;5.50;99.90;;;;;;4974827;28;19920;-73
2022/10/12 06:48:09;;;;;;;;;;;5.60;99.90;;;;;;4993757;28;19963;-72
2022/10/12 06:50:35;;;;;;;;;;;5.60;99.90;;;;;;4991499;28;19928;-72
2022/10/12 06:53:00;;;;;;;;;;;5.60;99.90;;;;;;4995770;28;19969;-72
2022/10/12 06:55:26;;;;;;;;;;;5.70;99.90;;;;;;4993208;28;19920;-71
2022/10/12 06:57:51;;;;;;;;;;;5.80;99.90;;;;;;4993266;28;19920;-71
2022/10/12 07:00:17;;;;;;;;;;;5.80;99.90;;;;;;4973619;28;19916;-73
2022/10/12 07:02:42;;;;;;;;;;;5.90;99.90;;;;;;4992248;28;19927;-73
2022/10/12 07:05:08;;;;;;;;;;;6.10;99.90;;;;;;4971490;28;19922;-73
2022/10/12 07:07:34;;;;;;;;;;;6.50;99.90;;;;;;4987157;28;19924;-72
2022/10/12 07:10:01;;;;;;;;;;;6.90;99.90;;;;;;4988289;28;20327;-73
2022/10/12 07:12:27;;;;;;;;;;;7.10;99.90;;;;;;4993317;28;20701;-73
2022/10/12 07:14:53;;;;;;;;;;;7.40;99.90;;;;;;4974308;28;19931;-72
2022/10/12 07:17:19;;;;;;;;;;;7.80;99.90;;;;;;4988864;28;19916;-73
2022/10/12 07:19:45;;;;;;;;;;;8.00;99.90;;;;;;4986235;28;19997;-73
2022/10/12 07:22:10;;;;;;;;;;;8.00;99.90;;;;;;4990929;28;19956;-73
2022/10/12 07:24:36;;;;;;;;;;;7.90;99.90;;;;;;4988970;28;19923;-73
2022/10/12 07:27:02;;;;;;;;;;;7.90;99.90;;;;;;4991041;28;20011;-73
2022/10/12 07:29:29;;;;;;;;;;;8.10;99.90;;;;;;4987094;28;19930;-74
2022/10/12 07:31:55;;;;;;;;;;;8.30;99.90;;;;;;4913561;28;2212104;-74
2022/10/12 07:34:21;;;;;;;;;;;8.60;99.90;;;;;;4991827;28;19917;-74
2022/10/12 07:36:46;;;;;;;;;;;8.90;99.90;;;;;;4993763;28;20040;-74
2022/10/12 07:39:12;;;;;;;;;;;8.70;99.90;;;;;;4992542;28;20365;-74
2022/10/12 07:41:37;;;;;;;;;;;8.80;99.90;;;;;;4990073;28;19920;-74
2022/10/12 07:44:03;;;;;;;;;;;9.00;99.90;;;;;;4989701;28;19927;-73
2022/10/12 07:46:29;;;;;;;;;;;9.00;99.90;;;;;;4990288;28;19915;-73
2022/10/12 07:48:54;;;;;;;;;;;9.00;99.90;;;;;;4972229;28;21138;-74
2022/10/12 07:51:20;;;;;;;;;;;9.00;99.90;;;;;;4989857;28;19924;-74
2022/10/12 07:53:45;;;;;;;;;;;9.00;99.90;;;;;;4970567;28;20792;-74
2022/10/12 07:56:14;;;;;;;;;;;9.10;99.90;;;;;;4991285;28;19950;-74
2022/10/12 07:58:40;;;;;;;;;;;9.10;99.90;;;;;;4988772;28;19916;-74
2022/10/12 08:01:07;;;;;;;;;;;9.10;99.90;;;;;;4990176;28;19923;-74
2022/10/12 08:03:33;;;;;;;;;;;9.00;99.90;;;;;;4972150;28;19916;-74
2022/10/12 08:05:59;;;;;;;;;;;9.00;99.90;;;;;;4972400;28;19916;-74
2022/10/12 08:08:25;;;;;;;;;;;8.90;99.90;;;;;;5072244;28;20003;-75
2022/10/12 08:10:50;;;;;;;;;;;9.00;99.90;;;;;;5092419;28;19912;-74
2022/10/12 08:13:16;;;;;;;;;;;9.20;99.90;;;;;;5082079;28;19911;-74
2022/10/12 08:15:47;;;;;;;;;;;9.50;99.90;;;;;;5085775;28;19965;-75
2022/10/12 08:18:13;;;;;;;;;;;9.70;99.90;;;;;;5111860;28;20021;-75
2022/10/12 08:20:38;;;;;;;;;;;10.00;99.90;;;;;;5091073;28;19908;-74
2022/10/12 08:23:04;;;;;;;;;;;10.20;99.90;;;;;;5113937;28;19955;-74
2022/10/12 08:25:29;;;;;;;;;;;10.40;99.90;;;;;;5102974;28;19919;-74
2022/10/12 08:27:56;;;;;;;;;;;10.60;99.90;;;;;;5095842;28;19939;-74
2022/10/12 08:30:25;;;;;;;;;;;10.70;99.90;;;;;;5106905;28;20010;-74
2022/10/12 08:32:51;;;;;;;;;;;10.80;99.90;;;;;;5093890;28;19956;-74
2022/10/12 08:35:17;;;;;;;;;;;10.90;99.90;;;;;;5104302;28;19958;-74
2022/10/12 08:37:43;;;;;;;;;;;11.00;99.90;;;;;;5035313;28;19963;-74
2022/10/12 08:40:16;;;;;;;;;;;11.20;99.90;;;;;;4988435;28;20222;-74
2022/10/12 08:42:51;;;;;;;;;;;11.30;99.90;;;;;;4965322;28;20420;-73
2022/10/12 08:45:40;;;;;;;;;;;11.70;99.90;;;;;;4983026;28;19920;-73
2022/10/12 08:48:14;;;;;;;;;;;11.70;99.90;;;;;;4969335;28;19916;-75
2022/10/12 08:50:45;;;;;;;;;;;11.80;99.90;;;;;;4986452;28;19920;-75
2022/10/12 08:53:18;;;;;;;;;;;12.10;99.90;;;;;;4984550;28;19920;-74
2022/10/12 08:55:44;;;;;;;;;;;12.40;99.90;;;;;;4989652;28;19920;-75
2022/10/12 08:58:13;;;;;;;;;;;12.70;99.90;;;;;;4968637;28;20623;-75
2022/10/12 09:00:39;;;;;;;;;;;13.00;99.90;;;;;;4986237;28;19954;-75
2022/10/12 09:03:24;;;;;;;;;;;13.70;99.90;;;;;;4971244;28;19917;-75
2022/10/12 09:06:10;;;;;;;;;;;14.20;99.90;;;;;;4985878;28;23993;-73
2022/10/12 09:08:55;;;;;;;;;;;14.70;99.90;;;;;;4989758;28;19916;-75
2022/10/12 09:11:35;;;;;;;;;;;15.10;99.90;;;;;;4991942;28;20509;-75
2022/10/12 09:14:08;;;;;;;;;;;15.70;99.90;;;;;;4993413;28;20009;-74
2022/10/12 09:16:36;;;;;;;;;;;16.20;99.90;;;;;;4994508;28;20211;-75
2022/10/12 09:19:27;;;;;;;;;;;16.70;99.90;;;;;;4987314;28;19966;-75
2022/10/12 09:21:53;;;;;;;;;;;17.00;99.90;;;;;;4991489;28;19916;-73
2022/10/12 09:24:23;;;;;;;;;;;17.10;99.90;;;;;;4991441;28;21404;-73
2022/10/12 09:26:50;;;;;;;;;;;17.00;99.90;;;;;;4987947;28;20007;-74
2022/10/12 09:29:16;;;;;;;;;;;16.60;99.90;;;;;;4988899;28;19923;-76
2022/10/12 09:31:50;;;;;;;;;;;16.40;99.90;;;;;;4989005;28;19946;-75
2022/10/12 09:34:16;;;;;;;;;;;16.30;99.90;;;;;;4968088;28;19916;-74
2022/10/12 09:36:48;;;;;;;;;;;16.20;99.90;;;;;;4970136;28;21454;-74
2022/10/12 09:39:28;;;;;;;;;;;16.00;99.90;;;;;;4988329;28;20803;-74
2022/10/12 09:41:53;;;;;;;;;;;15.90;99.90;;;;;;4988049;28;20531;-74
2022/10/12 09:44:27;;;;;;;;;;;16.00;99.90;;;;;;4987843;28;20056;-74
2022/10/12 09:46:58;;;;;;;;;;;16.20;99.90;;;;;;4989899;28;19916;-72
2022/10/12 09:49:40;;;;;;;;;;;16.40;99.90;;;;;;4967388;28;19920;-74
2022/10/12 09:52:06;;;;;;;;;;;16.40;99.90;;;;;;4987871;28;20035;-74
2022/10/12 09:54:32;;;;;;;;;;;16.20;99.90;;;;;;4967330;28;21379;-75
2022/10/12 09:56:57;;;;;;;;;;;16.00;99.90;;;;;;4988577;28;19922;-73
2022/10/12 09:59:23;;;;;;;;;;;15.70;99.90;;;;;;4987625;28;19927;-74
2022/10/12 10:02:07;;;;;;;;;;;15.50;99.90;;;;;;4988702;28;19965;-74
2022/10/12 10:04:33;;;;;;;;;;;15.30;99.90;;;;;;4988193;28;20712;-74
2022/10/12 10:07:16;;;;;;;;;;;15.40;99.90;;;;;;4970617;28;20200;-74
2022/10/12 10:09:42;;;;;;;;;;;15.30;99.90;;;;;;4986476;28;19930;-75
2022/10/12 10:12:21;;;;;;;;;;;15.00;99.90;;;;;;4988785;28;20374;-75
2022/10/12 10:14:47;;;;;;;;;;;14.90;99.90;;;;;;4987884;28;19997;-74
2022/10/12 10:17:14;;;;;;;;;;;14.90;99.90;;;;;;4986095;28;21033;-75
2022/10/12 10:19:46;;;;;;;;;;;14.80;99.90;;;;;;4952439;28;21525;-74
2022/10/12 10:22:12;;;;;;;;;;;14.90;99.90;;;;;;4985257;28;20040;-74
2022/10/12 10:24:38;;;;;;;;;;;15.00;99.90;;;;;;4989383;28;19917;-74
2022/10/12 10:27:05;;;;;;;;;;;14.90;99.90;;;;;;5096184;28;19995;-74
2022/10/12 10:29:34;;;;;;;;;;;15.00;99.90;;;;;;5084891;28;19916;-73
2022/10/12 10:32:23;;;;;;;;;;;15.00;99.90;;;;;;5104426;28;19928;-73
2022/10/12 10:35:06;;;;;;;;;;;15.00;99.90;;;;;;5071815;28;19939;-73
2022/10/12 10:37:32;;;;;;;;;;;15.00;99.90;;;;;;5101481;28;19912;-74
2022/10/12 10:39:58;;;;;;;;;;;15.00;99.90;;;;;;5108018;28;19915;-74
2022/10/12 10:42:27;;;;;;;;;;;14.80;99.90;;;;;;5101765;28;19912;-73
2022/10/12 10:45:00;;;;;;;;;;;14.80;99.90;;;;;;5106022;28;20012;-74
2022/10/12 10:47:26;;;;;;;;;;;14.60;99.90;;;;;;5100422;28;19908;-74
2022/10/12 10:49:58;;;;;;;;;;;14.70;99.90;;;;;;5099999;28;20060;-75
2022/10/12 10:52:27;;;;;;;;;;;14.90;99.90;;;;;;5091540;28;19912;-75
2022/10/12 10:55:12;;;;;;;;;;;14.90;99.90;;;;;;5069467;28;19924;-76
2022/10/12 10:57:44;;;;;;;;;;;14.90;99.90;;;;;;5012038;28;19916;-75
2022/10/12 11:00:17;;;;;;;;;;;14.80;99.90;;;;;;5007248;28;19920;-75
2022/10/12 11:02:52;;;;;;;;;;;14.80;99.90;;;;;;4998149;28;19939;-78
2022/10/12 11:05:29;;;;;;;;;;;14.70;99.90;;;;;;4995429;28;20060;-75
2022/10/12 11:08:17;;;;;;;;;;;14.70;99.90;;;;;;4948866;28;20962;-77
2022/10/12 11:11:11;;;;;;;;;;;14.60;99.90;;;;;;4985166;28;24214;-75
2022/10/12 11:14:02;;;;;;;;;;;14.60;99.90;;;;;;4970780;28;19916;-74
2022/10/12 11:16:33;;;;;;;;;;;14.70;99.90;;;;;;4955537;28;21729;-75
2022/10/12 11:19:01;;;;;;;;;;;14.90;99.90;;;;;;4970990;28;19978;-76
2022/10/12 11:21:44;;;;;;;;;;;14.90;99.90;;;;;;4991982;28;21233;-76
2022/10/12 11:24:16;;;;;;;;;;;15.00;99.90;;;;;;4988256;28;19970;-75
2022/10/12 11:26:48;;;;;;;;;;;15.00;99.90;;;;;;4990284;28;20030;-74
2022/10/12 11:29:16;;;;;;;;;;;15.00;99.90;;;;;;4987066;28;20054;-75
2022/10/12 11:32:02;;;;;;;;;;;15.00;99.90;;;;;;4987788;28;20239;-76
2022/10/12 11:34:31;;;;;;;;;;;15.00;99.90;;;;;;4989777;28;20349;-75
2022/10/12 11:36:57;;;;;;;;;;;15.20;99.90;;;;;;4990174;28;19916;-74
2022/10/12 11:39:28;;;;;;;;;;;15.40;99.90;;;;;;4972075;28;20253;-74
2022/10/12 11:41:54;;;;;;;;;;;15.30;99.90;;;;;;4969870;28;20522;-75
2022/10/12 11:44:36;;;;;;;;;;;15.20;99.90;;;;;;4989450;28;19915;-75
2022/10/12 11:47:22;;;;;;;;;;;15.30;99.90;;;;;;4991925;28;20488;-76
2022/10/12 11:49:47;;;;;;;;;;;15.20;99.90;;;;;;4990058;28;21023;-75
2022/10/12 11:52:13;;;;;;;;;;;15.10;99.90;;;;;;4972002;28;20519;-75
2022/10/12 11:54:42;;;;;;;;;;;15.10;99.90;;;;;;4971700;28;19958;-74
2022/10/12 11:57:13;;;;;;;;;;;15.00;99.90;;;;;;4991143;28;20323;-76
2022/10/12 11:59:56;;;;;;;;;;;15.00;99.90;;;;;;4990343;28;19965;-75
2022/10/12 12:02:27;;;;;;;;;;;15.00;99.90;;;;;;4991425;28;19947;-74
2022/10/12 12:04:53;;;;;;;;;;;15.10;99.90;;;;;;4992546;28;19917;-75
2022/10/12 12:07:21;;;;;;;;;;;15.10;99.90;;;;;;4990970;28;23319;-74
2022/10/12 12:09:47;;;;;;;;;;;15.00;99.90;;;;;;4990076;28;19949;-75
2022/10/12 12:12:23;;;;;;;;;;;15.10;99.90;;;;;;4990220;28;21155;-74
2022/10/12 12:14:52;;;;;;;;;;;15.10;99.90;;;;;;4970113;28;21669;-75
2022/10/12 12:17:17;;;;;;;;;;;15.00;99.90;;;;;;4989961;28;20844;-74
2022/10/12 12:19:48;;;;;;;;;;;15.10;99.90;;;;;;4971864;28;19926;-75
2022/10/12 12:22:18;;;;;;;;;;;15.20;99.90;;;;;;4972860;28;19916;-74
2022/10/12 12:24:53;;;;;;;;;;;15.30;99.90;;;;;;4989314;28;19915;-75
2022/10/12 12:27:31;;;;;;;;;;;15.40;99.90;;;;;;4973470;28;22773;-74
2022/10/12 12:29:59;;;;;;;;;;;15.40;99.90;;;;;;4970191;28;21124;-74
2022/10/12 12:32:25;;;;;;;;;;;15.40;99.90;;;;;;4970552;28;21217;-73
2022/10/12 12:34:56;;;;;;;;;;;15.40;99.90;;;;;;4989303;28;19920;-74
2022/10/12 12:37:24;;;;;;;;;;;15.40;99.90;;;;;;4989447;28;20416;-75
2022/10/12 12:39:53;;;;;;;;;;;15.40;99.90;;;;;;4967680;28;19916;-75
2022/10/12 12:42:26;;;;;;;;;;;15.70;99.90;;;;;;4990803;28;21292;-74
2022/10/12 12:44:52;;;;;;;;;;;16.00;99.90;;;;;;4988229;28;19977;-75
2022/10/12 12:47:36;;;;;;;;;;;16.30;99.90;;;;;;4989400;28;19999;-75
2022/10/12 12:50:25;;;;;;;;;;;16.40;99.90;;;;;;4968906;28;19962;-74
2022/10/12 12:52:52;;;;;;;;;;;16.40;99.90;;;;;;4991795;28;20015;-76
2022/10/12 12:55:18;;;;;;;;;;;16.50;99.90;;;;;;4990278;28;19958;-75
2022/10/12 12:57:46;;;;;;;;;;;16.50;99.90;;;;;;4986088;28;20218;-75
2022/10/12 13:00:35;;;;;;;;;;;16.30;99.90;;;;;;4988306;28;23739;-75
2022/10/12 13:03:07;;;;;;;;;;;16.40;99.90;;;;;;4971764;28;20323;-74
2022/10/12 13:05:42;;;;;;;;;;;16.40;99.90;;;;;;4987326;28;19915;-75
2022/10/12 13:08:26;;;;;;;;;;;16.30;99.90;;;;;;4967842;28;20014;-73
2022/10/12 13:10:52;;;;;;;;;;;16.10;99.90;;;;;;4990152;28;20927;-73
2022/10/12 13:13:26;;;;;;;;;;;15.80;99.90;;;;;;4972021;28;20005;-74
2022/10/12 13:16:21;;;;;;;;;;;15.70;99.90;;;;;;4989497;28;20527;-75
2022/10/12 13:18:54;;;;;;;;;;;15.50;99.90;;;;;;4970650;28;19916;-75
2022/10/12 13:21:24;;;;;;;;;;;15.40;99.90;;;;;;4991703;28;19916;-74
2022/10/12 13:23:54;;;;;;;;;;;15.30;99.90;;;;;;4970776;28;20391;-75
2022/10/12 13:26:24;;;;;;;;;;;15.20;99.90;;;;;;4990420;28;20551;-75
2022/10/12 13:28:51;;;;;;;;;;;15.20;99.90;;;;;;4969399;28;20066;-75
2022/10/12 13:31:35;;;;;;;;;;;15.10;99.90;;;;;;4986126;28;19927;-74
2022/10/12 13:34:01;;;;;;;;;;;15.10;99.90;;;;;;4969007;28;20103;-74
2022/10/12 13:36:28;;;;;;;;;;;15.00;99.90;;;;;;4987530;28;19942;-75
2022/10/12 13:39:14;;;;;;;;;;;15.00;99.90;;;;;;4969707;28;20007;-75
2022/10/12 13:41:40;;;;;;;;;;;15.00;99.90;;;;;;4990139;28;19926;-75
2022/10/12 13:44:06;;;;;;;;;;;15.00;99.90;;;;;;4971178;28;19916;-75
2022/10/12 13:46:36;;;;;;;;;;;15.00;99.90;;;;;;4991612;28;19923;-74
2022/10/12 13:49:10;;;;;;;;;;;15.10;99.90;;;;;;4990002;28;20953;-74
2022/10/12 13:51:36;;;;;;;;;;;15.20;99.90;;;;;;4969957;28;20327;-71
2022/10/12 13:54:01;;;;;;;;;;;15.40;99.90;;;;;;4990180;28;19958;-75
2022/10/12 13:56:28;;;;;;;;;;;15.60;99.90;;;;;;4989329;28;20387;-74
2022/10/12 13:58:58;;;;;;;;;;;15.80;99.90;;;;;;4971031;28;19916;-75
2022/10/12 14:01:24;;;;;;;;;;;16.00;99.90;;;;;;4973782;28;20014;-74
2022/10/12 14:03:50;;;;;;;;;;;16.10;99.90;;;;;;4992511;28;23708;-74
2022/10/12 14:06:27;;;;;;;;;;;16.10;99.90;;;;;;4972216;28;19920;-75
2022/10/12 14:08:54;;;;;;;;;;;15.90;99.90;;;;;;4987825;28;19926;-75
2022/10/12 14:11:20;;;;;;;;;;;15.80;99.90;;;;;;4987879;28;20307;-74
2022/10/12 14:13:46;;;;;;;;;;;15.80;99.90;;;;;;4969368;28;19915;-74
2022/10/12 14:16:12;;;;;;;;;;;15.70;99.90;;;;;;4986322;28;19916;-74
2022/10/12 14:18:42;;;;;;;;;;;15.60;99.90;;;;;;4986393;28;19966;-75
2022/10/12 14:21:24;;;;;;;;;;;15.60;99.90;;;;;;4988154;28;20302;-74
2022/10/12 14:23:52;;;;;;;;;;;15.60;99.90;;;;;;4980416;28;21201;-74
2022/10/12 14:26:26;;;;;;;;;;;15.50;99.90;;;;;;4984279;28;19923;-74
2022/10/12 14:28:51;;;;;;;;;;;15.50;99.90;;;;;;4982643;28;20349;-74
2022/10/12 14:31:17;;;;;;;;;;;15.50;99.90;;;;;;4983437;28;19928;-75
2022/10/12 14:33:43;;;;;;;;;;;15.50;99.90;;;;;;4979883;28;19916;-74